KMKT/MKT METAR and TAF weather

Enter ICAO airport designator
Station Type Date Time Source
KMKT METAR 2021/10/22 17:56 UTC NOAA

KMKT 221756Z AUTO 00000KT 10SM OVC080 07/M01 A3010 RMK AO2 SLP202 T00721006 10072 20011 56013


Station Type Date Time Source
KMKT Decoded METAR 2021/10/22 17:56 UTC NOAA

Mankato, Mankato Regional Airport, MN, United States (KMKT) 44-13N 093-55W
Oct 22, 2021 - 01:56 PM EDT / 2021.10.22 1756 UTC
Wind: Calm:0
Visibility: 10 mile(s):0
Sky conditions: overcast
Temperature: 45.0 F (7.2 C)
Dew Point: 30.9 F (-0.6 C)
Relative Humidity: 57%
Pressure (altimeter): 30.1 in. Hg (1019 hPa)
Pressure tendency: 0.04 inches (1.3 hPa) lower than three hours ago
ob: KMKT 221756Z AUTO 00000KT 10SM OVC080 07/M01 A3010 RMK AO2 SLP202 T00721006 10072 20011 56013
cycle: 18

Station Type Date Time Source
KMKT TAF 2021/10/22 18:33 UTC NOAA

TAF KMKT 221730Z 2218/2318 32006KT P6SM BKN080
FM230000 03003KT P6SM SKC
FM231400 10007KT P6SM SKC

Example: see airport list